Time;durP1;ratioP1;P1;durP2;ratioP2;P2;SDS_P1;SDS_P2;PMS_P1;PMS_P2;Temp;Humidity;BMP_temperature;BMP_pressure;BME280_temperature;BME280_humidity;BME280_pressure;Samples;Min_cycle;Max_cycle;Signal;HPM_P1;HPM_P2
2023/11/08 00:02:10;0.00;0.00;0.62;0.00;0.00;0.62;5.37;4.07;;;22.70;29.50;;;;;;2252761;61;20379;-63
2023/11/08 00:04:55;0.00;0.00;0.62;0.00;0.00;0.62;6.30;4.63;;;22.70;29.50;;;;;;2252410;61;20994;-63
2023/11/08 00:07:40;0.00;0.00;0.62;0.00;0.00;0.62;4.97;3.53;;;22.70;29.50;;;;;;2252712;61;20370;-64
2023/11/08 00:10:24;0.00;0.00;0.62;0.00;0.00;0.62;6.10;3.83;;;22.70;29.50;;;;;;2252876;61;20366;-63
2023/11/08 00:13:09;0.00;0.00;0.62;0.00;0.00;0.62;4.73;4.13;;;22.60;29.40;;;;;;2252546;61;20438;-63
2023/11/08 00:15:55;0.00;0.00;0.62;0.00;0.00;0.62;6.53;4.17;;;22.60;29.40;;;;;;2252637;61;20475;-64
2023/11/08 00:18:39;0.00;0.00;0.62;0.00;0.00;0.62;5.50;4.20;;;22.60;29.40;;;;;;2252040;61;20378;-64
2023/11/08 00:21:24;0.00;0.00;0.62;0.00;0.00;0.62;5.07;3.87;;;22.60;29.40;;;;;;2252923;61;20367;-63
2023/11/08 00:24:09;0.00;0.00;0.62;0.00;0.00;0.62;6.27;4.73;;;22.60;29.40;;;;;;2252744;61;20510;-64
2023/11/08 00:26:54;0.00;0.00;0.62;0.00;0.00;0.62;4.37;3.40;;;22.60;29.50;;;;;;2252362;61;20367;-64
2023/11/08 00:29:39;0.00;0.00;0.62;0.00;0.00;0.62;4.83;3.43;;;22.60;29.40;;;;;;2252365;61;20378;-64
2023/11/08 00:32:26;0.00;0.00;0.62;0.00;0.00;0.62;5.27;4.00;;;22.60;29.40;;;;;;2252071;61;20586;-63
2023/11/08 00:35:10;0.00;0.00;0.62;0.00;0.00;0.62;4.50;3.57;;;22.60;29.40;;;;;;2252348;61;20386;-63
2023/11/08 00:37:55;0.00;0.00;0.62;0.00;0.00;0.62;4.40;3.70;;;22.60;29.40;;;;;;2252022;61;20366;-62
2023/11/08 00:40:39;0.00;0.00;0.62;0.00;0.00;0.62;4.10;3.30;;;22.60;29.40;;;;;;2252563;61;20434;-63
2023/11/08 00:43:24;0.00;0.00;0.62;0.00;0.00;0.62;6.10;4.47;;;22.60;29.40;;;;;;2252126;61;20410;-63
2023/11/08 00:46:08;0.00;0.00;0.62;0.00;0.00;0.62;5.10;4.07;;;22.60;29.40;;;;;;2252625;61;20390;-63
2023/11/08 00:48:55;0.00;0.00;0.62;0.00;0.00;0.62;5.00;3.67;;;22.60;29.40;;;;;;2251951;61;20374;-63
2023/11/08 00:51:40;0.00;0.00;0.62;0.00;0.00;0.62;4.73;3.80;;;22.60;29.40;;;;;;2252558;61;20395;-63
2023/11/08 00:54:25;0.00;0.00;0.62;0.00;0.00;0.62;4.50;3.40;;;22.60;29.40;;;;;;2252453;61;20931;-63
2023/11/08 00:57:12;0.00;0.00;0.62;0.00;0.00;0.62;4.30;3.40;;;22.60;29.40;;;;;;2252539;61;20894;-63
2023/11/08 00:59:57;0.00;0.00;0.62;0.00;0.00;0.62;4.70;3.60;;;22.60;29.50;;;;;;2251841;61;20902;-63
2023/11/08 01:02:42;0.00;0.00;0.62;0.00;0.00;0.62;4.40;3.30;;;22.50;29.40;;;;;;2251971;61;20429;-63
2023/11/08 01:05:28;0.00;0.00;0.62;0.00;0.00;0.62;5.43;3.87;;;22.50;29.40;;;;;;2252508;61;20385;-63
2023/11/08 01:08:13;0.00;0.00;0.62;0.00;0.00;0.62;5.40;3.20;;;22.50;29.40;;;;;;2254723;61;20677;-65
2023/11/08 01:10:58;0.00;0.00;0.62;0.00;0.00;0.62;4.20;3.07;;;22.60;29.50;;;;;;2252373;61;20366;-63
2023/11/08 01:13:45;0.00;0.00;0.62;0.00;0.00;0.62;5.27;4.00;;;22.60;29.50;;;;;;2252241;61;20490;-64
2023/11/08 01:16:30;0.00;0.00;0.62;0.00;0.00;0.62;3.90;2.97;;;22.60;29.50;;;;;;2252381;61;20446;-64
2023/11/08 01:19:15;0.00;0.00;0.62;0.00;0.00;0.62;5.10;3.33;;;22.50;29.40;;;;;;2252164;61;20483;-64
2023/11/08 01:22:05;0.00;0.00;0.62;0.00;0.00;0.62;3.80;3.03;;;22.50;29.40;;;;;;2252569;61;20359;-63
2023/11/08 01:24:49;0.00;0.00;0.62;0.00;0.00;0.62;4.63;3.23;;;22.50;29.40;;;;;;2252257;61;20398;-64
2023/11/08 01:27:34;0.00;0.00;0.62;0.00;0.00;0.62;4.30;3.10;;;22.50;29.40;;;;;;2252452;61;20793;-63
2023/11/08 01:30:18;0.00;0.00;0.62;0.00;0.00;0.62;4.30;2.80;;;22.50;29.40;;;;;;2252349;61;20374;-64
2023/11/08 01:33:03;0.00;0.00;0.62;0.00;0.00;0.62;4.20;2.80;;;22.50;29.90;;;;;;2252179;61;20394;-63
2023/11/08 01:35:47;0.00;0.00;0.62;0.00;0.00;0.62;3.83;3.00;;;22.50;29.40;;;;;;2252370;61;20954;-64
2023/11/08 01:38:34;0.00;0.00;0.62;0.00;0.00;0.62;3.63;2.40;;;22.50;29.40;;;;;;2252022;61;20462;-64
2023/11/08 01:41:19;0.00;0.00;0.62;0.00;0.00;0.62;4.83;3.30;;;22.60;29.40;;;;;;2252460;61;20371;-64
2023/11/08 01:44:04;0.00;0.00;0.62;0.00;0.00;0.62;3.57;2.60;;;22.60;29.40;;;;;;2252248;61;20390;-63
2023/11/08 01:46:53;0.00;0.00;0.62;0.00;0.00;0.62;4.13;2.90;;;22.60;29.40;;;;;;2252466;61;20374;-64
2023/11/08 01:49:38;0.00;0.00;0.62;0.00;0.00;0.62;3.80;2.93;;;22.60;29.40;;;;;;2251806;61;20366;-64
2023/11/08 01:52:23;0.00;0.00;0.62;0.00;0.00;0.62;3.47;2.70;;;22.60;29.40;;;;;;2252293;61;20871;-64
2023/11/08 01:55:10;0.00;0.00;0.62;0.00;0.00;0.62;3.63;3.23;;;22.60;29.40;;;;;;2252193;61;20429;-64
2023/11/08 01:57:55;0.00;0.00;0.62;0.00;0.00;0.62;4.10;2.93;;;22.60;29.40;;;;;;2252121;61;20422;-64
2023/11/08 02:00:42;0.00;0.00;0.62;0.00;0.00;0.62;3.37;2.40;;;22.60;29.90;;;;;;2251988;61;20821;-63
2023/11/08 02:03:27;0.00;0.00;0.62;0.00;0.00;0.62;3.03;2.30;;;22.60;29.30;;;;;;2251990;61;20371;-63
2023/11/08 02:06:13;0.00;0.00;0.62;0.00;0.00;0.62;3.80;2.70;;;22.60;29.30;;;;;;2252582;61;20425;-64
2023/11/08 02:09:00;0.00;0.00;0.62;0.00;0.00;0.62;3.10;2.53;;;22.60;29.40;;;;;;2254052;61;20366;-63
2023/11/08 02:11:46;0.00;0.00;0.62;0.00;0.00;0.62;3.70;2.40;;;22.60;29.40;;;;;;2251942;61;20417;-63
2023/11/08 02:14:31;0.00;0.00;0.62;0.00;0.00;0.62;3.70;2.63;;;22.50;29.30;;;;;;2487147;53;20486;-63
2023/11/08 02:17:16;0.00;0.00;0.62;0.00;0.00;0.62;3.70;2.67;;;22.50;29.30;;;;;;2251515;61;20367;-64
2023/11/08 02:20:06;0.00;0.00;0.62;0.00;0.00;0.62;4.50;2.63;;;22.50;29.30;;;;;;2248435;61;20823;-64
2023/11/08 02:22:51;0.00;0.00;0.62;0.00;0.00;0.62;3.93;2.63;;;22.50;29.30;;;;;;2263683;58;20406;-63
2023/11/08 02:25:41;0.00;0.00;0.62;0.00;0.00;0.62;3.33;2.57;;;22.60;29.30;;;;;;2252224;61;20805;-63
2023/11/08 02:28:26;0.00;0.00;0.62;0.00;0.00;0.62;4.00;2.27;;;22.50;29.30;;;;;;2251847;61;20824;-64
2023/11/08 02:31:10;0.00;0.00;0.62;0.00;0.00;0.62;3.10;2.37;;;22.50;29.30;;;;;;2252339;61;20365;-64
2023/11/08 02:33:55;0.00;0.00;0.62;0.00;0.00;0.62;3.03;2.53;;;22.50;29.30;;;;;;2252202;61;20389;-63
2023/11/08 02:36:40;0.00;0.00;0.62;0.00;0.00;0.62;3.60;2.57;;;22.50;29.80;;;;;;2252235;61;20390;-66
2023/11/08 02:39:25;0.00;0.00;0.62;0.00;0.00;0.62;3.67;2.30;;;22.50;29.30;;;;;;2251910;61;20951;-64
2023/11/08 02:42:11;0.00;0.00;0.62;0.00;0.00;0.62;5.63;2.50;;;22.50;29.30;;;;;;2252346;61;20454;-63
2023/11/08 02:44:55;0.00;0.00;0.62;0.00;0.00;0.62;2.60;1.90;;;22.50;29.30;;;;;;2252582;61;20815;-64
2023/11/08 02:47:40;0.00;0.00;0.62;0.00;0.00;0.62;2.60;2.30;;;22.50;29.30;;;;;;2252841;61;20362;-63
2023/11/08 02:50:25;0.00;0.00;0.62;0.00;0.00;0.62;3.13;2.50;;;22.50;29.30;;;;;;2252920;61;20417;-63
2023/11/08 02:53:09;0.00;0.00;0.62;0.00;0.00;0.62;3.50;2.70;;;22.50;29.30;;;;;;2252782;61;20406;-64
2023/11/08 02:55:54;0.00;0.00;0.62;0.00;0.00;0.62;3.10;2.10;;;22.50;29.30;;;;;;2254833;61;20381;-64
2023/11/08 02:58:40;0.00;0.00;0.62;0.00;0.00;0.62;2.97;1.97;;;22.50;29.30;;;;;;2252196;61;20903;-64
2023/11/08 03:01:24;0.00;0.00;0.62;0.00;0.00;0.62;3.33;2.47;;;22.50;29.30;;;;;;2252804;61;20385;-63
2023/11/08 03:04:09;0.00;0.00;0.62;0.00;0.00;0.62;4.13;2.00;;;22.50;29.30;;;;;;2252928;61;20402;-63
2023/11/08 03:06:53;0.00;0.00;0.62;0.00;0.00;0.62;3.07;2.00;;;22.50;29.30;;;;;;2252319;61;20449;-64
2023/11/08 03:09:39;0.00;0.00;0.62;0.00;0.00;0.62;3.20;1.80;;;22.50;29.30;;;;;;2252348;61;20842;-63
2023/11/08 03:12:23;0.00;0.00;0.62;0.00;0.00;0.62;2.80;2.00;;;22.50;29.30;;;;;;2252626;61;20418;-64
2023/11/08 03:15:11;0.00;0.00;0.62;0.00;0.00;0.62;2.80;1.90;;;22.50;29.30;;;;;;2252950;61;20466;-63
2023/11/08 03:17:56;0.00;0.00;0.62;0.00;0.00;0.62;2.97;2.13;;;22.40;29.30;;;;;;2252151;61;20367;-63
2023/11/08 03:20:41;0.00;0.00;0.62;0.00;0.00;0.62;3.70;2.20;;;22.40;29.30;;;;;;2252325;61;20370;-63
2023/11/08 03:23:27;0.00;0.00;0.62;0.00;0.00;0.62;3.20;2.10;;;22.40;29.30;;;;;;2252661;61;20367;-64
2023/11/08 03:26:12;0.00;0.00;0.62;0.00;0.00;0.62;2.70;2.20;;;22.40;29.30;;;;;;2252640;61;20422;-62
2023/11/08 03:28:56;0.00;0.00;0.62;0.00;0.00;0.62;3.67;2.40;;;22.40;29.30;;;;;;2252350;61;20450;-64
2023/11/08 03:31:42;0.00;0.00;0.62;0.00;0.00;0.62;2.53;1.67;;;22.40;29.30;;;;;;2252663;61;20398;-62
2023/11/08 03:34:27;0.00;0.00;0.62;0.00;0.00;0.62;2.53;1.67;;;22.40;29.30;;;;;;2252842;61;20383;-63
2023/11/08 03:37:11;0.00;0.00;0.62;0.00;0.00;0.62;2.97;2.07;;;22.40;29.20;;;;;;2253040;61;20931;-63
2023/11/08 03:39:58;0.00;0.00;0.62;0.00;0.00;0.62;4.03;2.17;;;22.40;29.30;;;;;;2252455;61;20367;-62
2023/11/08 03:42:42;0.00;0.00;0.62;0.00;0.00;0.62;2.17;1.70;;;22.40;29.30;;;;;;2252919;61;20374;-62
2023/11/08 03:45:28;0.00;0.00;0.62;0.00;0.00;0.62;2.30;1.83;;;22.40;29.30;;;;;;2252661;61;20478;-63
2023/11/08 03:48:14;0.00;0.00;0.62;0.00;0.00;0.62;3.37;2.10;;;22.40;29.30;;;;;;2252431;61;20827;-65
2023/11/08 03:50:58;0.00;0.00;0.62;0.00;0.00;0.62;3.80;2.13;;;22.40;29.30;;;;;;2253013;61;20371;-62
2023/11/08 03:53:43;0.00;0.00;0.62;0.00;0.00;0.62;3.73;1.90;;;22.40;29.30;;;;;;2252491;61;20478;-62
2023/11/08 03:56:30;0.00;0.00;0.62;0.00;0.00;0.62;3.50;2.20;;;22.40;29.30;;;;;;2252615;61;20366;-62
2023/11/08 03:59:14;0.00;0.00;0.62;0.00;0.00;0.62;2.50;1.93;;;22.40;29.30;;;;;;2252563;61;20410;-62
2023/11/08 04:01:59;0.00;0.00;0.62;0.00;0.00;0.62;2.33;1.60;;;22.40;29.30;;;;;;2252758;61;20379;-71
2023/11/08 04:04:45;0.00;0.00;0.62;0.00;0.00;0.62;2.20;1.40;;;22.40;29.30;;;;;;2252811;61;20449;-64
2023/11/08 04:07:31;0.00;0.00;0.62;0.00;0.00;0.62;2.50;1.77;;;22.40;29.30;;;;;;2252716;61;20378;-63
2023/11/08 04:10:16;0.00;0.00;0.62;0.00;0.00;0.62;2.30;1.60;;;22.40;29.30;;;;;;2254702;61;20363;-64
2023/11/08 04:13:01;0.00;0.00;0.62;0.00;0.00;0.62;2.47;1.70;;;22.40;29.30;;;;;;2252617;61;20390;-63
2023/11/08 04:15:46;0.00;0.00;0.62;0.00;0.00;0.62;2.30;1.50;;;22.30;29.20;;;;;;2252295;61;20398;-63
2023/11/08 04:18:30;0.00;0.00;0.62;0.00;0.00;0.62;2.27;1.57;;;22.30;29.20;;;;;;2251607;61;20358;-64
2023/11/08 04:21:17;0.00;0.00;0.62;0.00;0.00;0.62;2.83;1.77;;;22.30;29.20;;;;;;2252299;61;20827;-63
2023/11/08 04:24:03;0.00;0.00;0.62;0.00;0.00;0.62;2.10;1.40;;;22.30;29.20;;;;;;2252412;61;20387;-63
2023/11/08 04:26:48;0.00;0.00;0.62;0.00;0.00;0.62;1.90;1.37;;;22.30;29.20;;;;;;2252491;61;20370;-63
2023/11/08 04:29:33;0.00;0.00;0.62;0.00;0.00;0.62;2.87;1.93;;;22.30;29.20;;;;;;2251916;61;20441;-64
2023/11/08 04:32:17;0.00;0.00;0.62;0.00;0.00;0.62;1.90;1.20;;;22.30;29.20;;;;;;2252566;61;20445;-64
2023/11/08 04:35:02;0.00;0.00;0.62;0.00;0.00;0.62;2.77;2.07;;;22.30;29.20;;;;;;2252460;61;20462;-64
2023/11/08 04:37:48;0.00;0.00;0.62;0.00;0.00;0.62;2.47;1.90;;;22.30;29.20;;;;;;2252015;61;20394;-64
2023/11/08 04:40:33;0.00;0.00;0.62;0.00;0.00;0.62;2.83;1.67;;;22.30;29.20;;;;;;2252434;61;20394;-64
2023/11/08 04:43:17;0.00;0.00;0.62;0.00;0.00;0.62;2.63;1.63;;;22.30;29.20;;;;;;2252534;61;20418;-64
2023/11/08 04:46:02;0.00;0.00;0.62;0.00;0.00;0.62;2.50;2.03;;;22.30;29.20;;;;;;2252328;61;20921;-65
2023/11/08 04:48:47;0.00;0.00;0.62;0.00;0.00;0.62;2.10;1.60;;;22.30;29.20;;;;;;2252210;61;20425;-63
2023/11/08 04:51:31;0.00;0.00;0.62;0.00;0.00;0.62;2.27;1.70;;;22.30;29.20;;;;;;2252510;61;20366;-64
2023/11/08 04:54:17;0.00;0.00;0.62;0.00;0.00;0.62;2.27;1.80;;;22.30;29.20;;;;;;2252549;61;20474;-63
2023/11/08 04:57:02;0.00;0.00;0.62;0.00;0.00;0.62;2.97;1.70;;;22.30;29.20;;;;;;2252592;61;20375;-64
2023/11/08 04:59:47;0.00;0.00;0.62;0.00;0.00;0.62;3.63;2.07;;;22.30;29.20;;;;;;2252050;61;20374;-64
2023/11/08 05:02:33;0.00;0.00;0.62;0.00;0.00;0.62;2.70;1.47;;;22.30;29.20;;;;;;2252732;61;20375;-64
2023/11/08 05:05:19;0.00;0.00;0.62;0.00;0.00;0.62;2.07;1.40;;;22.30;29.30;;;;;;2252690;61;20414;-64
2023/11/08 05:08:05;0.00;0.00;0.62;0.00;0.00;0.62;2.27;1.70;;;22.30;29.20;;;;;;2252071;61;20410;-64
2023/11/08 05:10:51;0.00;0.00;0.62;0.00;0.00;0.62;2.73;1.60;;;22.30;29.20;;;;;;2252688;61;20483;-63
2023/11/08 05:13:38;0.00;0.00;0.62;0.00;0.00;0.62;2.20;1.50;;;22.30;29.30;;;;;;2252477;61;20394;-64
2023/11/08 05:16:23;0.00;0.00;0.62;0.00;0.00;0.62;2.27;1.50;;;22.30;29.30;;;;;;2252507;61;20748;-64
2023/11/08 05:19:08;0.00;0.00;0.62;0.00;0.00;0.62;2.33;1.57;;;22.30;29.30;;;;;;2252197;61;20362;-64
2023/11/08 05:21:52;0.00;0.00;0.62;0.00;0.00;0.62;1.70;1.30;;;22.20;29.20;;;;;;2252521;61;20394;-63
2023/11/08 05:24:37;0.00;0.00;0.62;0.00;0.00;0.62;2.30;1.47;;;22.30;29.30;;;;;;2251862;61;20430;-64
2023/11/08 05:27:23;0.00;0.00;0.62;0.00;0.00;0.62;2.10;1.43;;;22.20;29.20;;;;;;2252492;61;20406;-63
2023/11/08 05:30:09;0.00;0.00;0.62;0.00;0.00;0.62;2.20;1.50;;;22.20;29.20;;;;;;2251820;61;20957;-64
2023/11/08 05:32:54;0.00;0.00;0.62;0.00;0.00;0.62;2.03;1.53;;;22.20;29.20;;;;;;2252422;61;20383;-64
2023/11/08 05:35:38;0.00;0.00;0.62;0.00;0.00;0.62;2.27;1.83;;;22.20;29.80;;;;;;2251932;61;20382;-63
2023/11/08 05:38:23;0.00;0.00;0.62;0.00;0.00;0.62;2.20;1.60;;;22.20;29.30;;;;;;2251870;61;20387;-64
2023/11/08 05:41:07;0.00;0.00;0.62;0.00;0.00;0.62;2.13;1.40;;;22.20;29.20;;;;;;2252272;61;20363;-64
2023/11/08 05:43:56;0.00;0.00;0.62;0.00;0.00;0.62;3.23;1.90;;;22.30;29.30;;;;;;2252152;61;20374;-64
2023/11/08 05:46:40;0.00;0.00;0.62;0.00;0.00;0.62;3.53;1.67;;;22.20;29.20;;;;;;2252397;61;20887;-64
2023/11/08 05:49:26;0.00;0.00;0.62;0.00;0.00;0.62;2.43;1.60;;;22.20;29.20;;;;;;2252139;61;20390;-64
2023/11/08 05:52:11;0.00;0.00;0.62;0.00;0.00;0.62;2.87;2.07;;;22.20;29.20;;;;;;2252389;61;20454;-64
2023/11/08 05:54:55;0.00;0.00;0.62;0.00;0.00;0.62;2.93;2.20;;;22.20;29.30;;;;;;2252353;61;21140;-64
2023/11/08 05:57:40;0.00;0.00;0.62;0.00;0.00;0.62;2.40;1.83;;;22.20;29.30;;;;;;2252246;61;20366;-69
2023/11/08 06:00:26;0.00;0.00;0.62;0.00;0.00;0.62;2.80;2.17;;;22.20;29.30;;;;;;2252076;61;20791;-64
2023/11/08 06:03:11;0.00;0.00;0.62;0.00;0.00;0.62;2.80;2.20;;;22.20;29.30;;;;;;2252314;61;20479;-63
2023/11/08 06:05:56;0.00;0.00;0.62;0.00;0.00;0.62;3.23;2.57;;;22.20;29.30;;;;;;2252252;61;20394;-63
2023/11/08 06:08:41;0.00;0.00;0.62;0.00;0.00;0.62;4.23;2.50;;;22.20;29.30;;;;;;2251878;61;20406;-64
2023/11/08 06:11:26;0.00;0.00;0.62;0.00;0.00;0.62;3.90;2.77;;;22.20;29.30;;;;;;2252387;61;20398;-64
2023/11/08 06:14:11;0.00;0.00;0.62;0.00;0.00;0.62;4.63;3.10;;;22.20;29.30;;;;;;2251882;61;20474;-64
2023/11/08 06:16:57;0.00;0.00;0.62;0.00;0.00;0.62;3.50;2.60;;;22.20;29.30;;;;;;2252280;61;20367;-62
2023/11/08 06:19:42;0.00;0.00;0.62;0.00;0.00;0.62;3.20;2.53;;;22.20;29.30;;;;;;2251997;61;20891;-62
2023/11/08 06:22:26;0.00;0.00;0.62;0.00;0.00;0.62;4.60;3.40;;;22.20;29.30;;;;;;2252326;61;20398;-63
2023/11/08 06:25:11;0.00;0.00;0.62;0.00;0.00;0.62;4.37;3.33;;;22.20;29.30;;;;;;2252319;61;20382;-62
2023/11/08 06:27:56;0.00;0.00;0.62;0.00;0.00;0.62;3.57;3.00;;;22.20;29.30;;;;;;2251973;61;20375;-62
2023/11/08 06:30:40;0.00;0.00;0.62;0.00;0.00;0.62;4.07;3.20;;;22.20;29.30;;;;;;2251984;61;20414;-63
2023/11/08 06:33:26;0.00;0.00;0.62;0.00;0.00;0.62;6.70;3.90;;;22.20;29.30;;;;;;2252438;61;20387;-63
2023/11/08 06:36:13;0.00;0.00;0.62;0.00;0.00;0.62;5.43;3.87;;;22.20;29.30;;;;;;2252123;61;20501;-64
2023/11/08 06:38:57;0.00;0.00;0.62;0.00;0.00;0.62;5.33;3.40;;;22.20;29.30;;;;;;2251939;61;20371;-64
2023/11/08 06:41:42;0.00;0.00;0.62;0.00;0.00;0.62;5.73;4.17;;;22.20;29.30;;;;;;2252366;61;20362;-64
2023/11/08 06:44:26;0.00;0.00;0.62;0.00;0.00;0.62;5.47;4.23;;;22.20;29.30;;;;;;2254727;61;20382;-63
2023/11/08 06:47:11;0.00;0.00;0.62;0.00;0.00;0.62;4.63;4.10;;;22.20;29.30;;;;;;2252277;61;20370;-63
2023/11/08 06:49:57;0.00;0.00;0.62;0.00;0.00;0.62;5.40;4.10;;;22.10;29.20;;;;;;2251938;61;20366;-63
2023/11/08 06:52:42;0.00;0.00;0.62;0.00;0.00;0.62;5.40;4.20;;;22.20;29.30;;;;;;2252431;61;20771;-63
2023/11/08 06:55:27;0.00;0.00;0.62;0.00;0.00;0.62;6.13;4.37;;;22.10;29.20;;;;;;2252175;61;20383;-64
2023/11/08 06:58:11;0.00;0.00;0.62;0.00;0.00;0.62;5.23;4.60;;;22.10;29.20;;;;;;2251596;61;20370;-64
2023/11/08 07:00:56;0.00;0.00;0.62;0.00;0.00;0.62;7.23;5.57;;;22.10;29.30;;;;;;2252147;61;20375;-64
2023/11/08 07:03:40;0.00;0.00;0.62;0.00;0.00;0.62;6.97;5.30;;;22.10;29.30;;;;;;2252150;61;20498;-63
2023/11/08 07:06:27;0.00;0.00;0.62;0.00;0.00;0.62;7.30;5.60;;;22.10;29.30;;;;;;2252136;61;20375;-64
2023/11/08 07:09:13;0.00;0.00;0.62;0.00;0.00;0.62;5.70;5.10;;;22.10;29.30;;;;;;2251742;61;20382;-64
2023/11/08 07:11:58;0.00;0.00;0.62;0.00;0.00;0.62;7.37;6.00;;;22.10;29.30;;;;;;2252312;61;20831;-62
2023/11/08 07:14:43;0.00;0.00;0.62;0.00;0.00;0.62;7.30;6.03;;;22.20;29.40;;;;;;2251983;61;20422;-63
2023/11/08 07:17:29;0.00;0.00;0.62;0.00;0.00;0.62;7.20;5.70;;;22.10;29.30;;;;;;2252123;61;20835;-63
2023/11/08 07:20:14;0.00;0.00;0.62;0.00;0.00;0.62;6.57;5.33;;;22.10;29.30;;;;;;2251887;61;20371;-64
2023/11/08 07:23:02;0.00;0.00;0.62;0.00;0.00;0.62;7.73;6.50;;;22.10;29.30;;;;;;2252188;61;20402;-64
2023/11/08 07:25:47;0.00;0.00;0.62;0.00;0.00;0.62;7.90;6.30;;;22.20;29.40;;;;;;2252282;61;20491;-63
2023/11/08 07:28:32;0.00;0.00;0.62;0.00;0.00;0.62;8.00;6.40;;;22.10;29.30;;;;;;2251729;61;20367;-64
2023/11/08 07:31:16;0.00;0.00;0.62;0.00;0.00;0.62;8.60;6.20;;;22.10;29.30;;;;;;2252916;61;20371;-64
2023/11/08 07:34:01;0.00;0.00;0.62;0.00;0.00;0.62;7.50;6.60;;;22.10;29.30;;;;;;2252055;61;20962;-64
2023/11/08 07:36:46;0.00;0.00;0.62;0.00;0.00;0.62;8.80;7.00;;;22.10;29.30;;;;;;2252848;61;20362;-64
2023/11/08 07:39:32;0.00;0.00;0.62;0.00;0.00;0.62;7.17;6.03;;;22.10;29.30;;;;;;2252496;61;20371;-63
2023/11/08 07:42:16;0.00;0.00;0.62;0.00;0.00;0.62;8.80;6.60;;;22.10;29.30;;;;;;2252587;61;20366;-63
2023/11/08 07:45:01;0.00;0.00;0.62;0.00;0.00;0.62;8.83;7.40;;;22.10;29.30;;;;;;2252899;61;20507;-63
2023/11/08 07:47:46;0.00;0.00;0.62;0.00;0.00;0.62;8.13;7.23;;;22.10;29.30;;;;;;2252774;61;20374;-63
2023/11/08 07:50:30;0.00;0.00;0.62;0.00;0.00;0.62;9.20;7.03;;;22.10;29.30;;;;;;2520191;53;20415;-63
2023/11/08 07:53:15;0.00;0.00;0.62;0.00;0.00;0.62;8.73;7.60;;;22.10;29.30;;;;;;2248602;61;20804;-63
2023/11/08 07:56:00;0.00;0.00;0.62;0.00;0.00;0.62;7.20;6.50;;;22.10;29.30;;;;;;2248967;61;20934;-64
2023/11/08 07:58:45;0.00;0.00;0.62;0.00;0.00;0.62;10.10;8.00;;;22.10;29.30;;;;;;2247928;61;20932;-63
2023/11/08 08:01:31;0.00;0.00;0.62;0.00;0.00;0.62;9.00;7.50;;;22.10;29.30;;;;;;2249018;61;20916;-65
2023/11/08 08:04:16;0.00;0.00;0.62;0.00;0.00;0.62;8.90;7.33;;;22.10;29.30;;;;;;2248515;61;20699;-65
2023/11/08 08:07:08;0.00;0.00;0.62;0.00;0.00;0.62;8.60;7.17;;;22.10;29.30;;;;;;2248749;61;20371;-63
2023/11/08 08:09:54;0.00;0.00;0.62;0.00;0.00;0.62;8.10;7.17;;;22.10;29.30;;;;;;2250764;61;20845;-65
2023/11/08 08:12:40;0.00;0.00;0.62;0.00;0.00;0.62;8.37;6.97;;;22.10;29.30;;;;;;2248631;61;20912;-67
2023/11/08 08:15:25;0.00;0.00;0.62;0.00;0.00;0.62;8.10;7.20;;;22.10;29.30;;;;;;2248907;61;20392;-63
2023/11/08 08:18:11;0.00;0.00;0.62;0.00;0.00;0.62;8.00;6.50;;;22.10;29.30;;;;;;2248456;61;20936;-64
2023/11/08 08:20:56;0.00;0.00;0.62;0.00;0.00;0.62;9.23;7.80;;;22.10;29.30;;;;;;2248498;61;20464;-64
2023/11/08 08:23:40;0.00;0.00;0.62;0.00;0.00;0.62;8.10;7.00;;;22.10;29.30;;;;;;2251106;61;20449;-63
2023/11/08 08:26:25;0.00;0.00;0.62;0.00;0.00;0.62;7.17;6.40;;;22.10;29.30;;;;;;2248621;61;20378;-62
2023/11/08 08:29:13;0.00;0.00;0.62;0.00;0.00;0.62;8.50;6.60;;;22.10;29.30;;;;;;2248553;61;20387;-63
2023/11/08 08:31:58;0.00;0.00;0.62;0.00;0.00;0.62;8.67;7.30;;;22.10;29.30;;;;;;2248714;61;20506;-63
2023/11/08 08:34:42;0.00;0.00;0.62;0.00;0.00;0.62;8.83;7.90;;;22.10;29.30;;;;;;2248314;61;20408;-63
2023/11/08 08:37:27;0.00;0.00;0.62;0.00;0.00;0.62;8.10;6.63;;;22.10;29.30;;;;;;2248678;61;20426;-63
2023/11/08 08:40:11;0.00;0.00;0.62;0.00;0.00;0.62;8.90;7.23;;;22.10;29.30;;;;;;2248374;61;20451;-62
2023/11/08 08:42:56;0.00;0.00;0.62;0.00;0.00;0.62;6.87;6.17;;;22.10;29.30;;;;;;2248535;61;20765;-63
2023/11/08 08:45:42;0.00;0.00;0.62;0.00;0.00;0.62;7.83;6.23;;;22.10;29.30;;;;;;2250801;61;20918;-63
2023/11/08 08:48:27;0.00;0.00;0.62;0.00;0.00;0.62;7.10;6.20;;;22.10;29.30;;;;;;2252123;61;21014;-62
2023/11/08 08:51:12;0.00;0.00;0.62;0.00;0.00;0.62;7.70;6.03;;;22.10;29.30;;;;;;2252479;61;20882;-62
2023/11/08 08:53:56;0.00;0.00;0.62;0.00;0.00;0.62;7.10;6.07;;;22.10;29.30;;;;;;2252622;61;20441;-62
2023/11/08 08:56:41;0.00;0.00;0.62;0.00;0.00;0.62;7.30;5.50;;;22.10;29.30;;;;;;2252630;61;20367;-62
2023/11/08 08:59:27;0.00;0.00;0.62;0.00;0.00;0.62;7.30;5.47;;;22.10;29.30;;;;;;2251848;61;20394;-62
2023/11/08 09:02:13;0.00;0.00;0.62;0.00;0.00;0.62;8.90;6.87;;;22.10;29.30;;;;;;2252727;61;20425;-62
2023/11/08 09:04:58;0.00;0.00;0.62;0.00;0.00;0.62;8.43;6.70;;;22.10;29.30;;;;;;2252404;61;20386;-62
2023/11/08 09:07:43;0.00;0.00;0.62;0.00;0.00;0.62;6.70;5.20;;;22.20;29.40;;;;;;2252728;61;20417;-62
2023/11/08 09:10:28;0.00;0.00;0.62;0.00;0.00;0.62;7.00;5.90;;;22.10;29.30;;;;;;2252686;61;20367;-62
2023/11/08 09:13:13;0.00;0.00;0.62;0.00;0.00;0.62;7.73;5.73;;;22.10;29.30;;;;;;2252742;61;20414;-62
2023/11/08 09:16:00;0.00;0.00;0.62;0.00;0.00;0.62;6.00;5.40;;;22.10;29.30;;;;;;2252392;61;20406;-62
2023/11/08 09:18:46;0.00;0.00;0.62;0.00;0.00;0.62;7.47;6.50;;;22.10;29.30;;;;;;2252086;61;20366;-62
2023/11/08 09:21:30;0.00;0.00;0.62;0.00;0.00;0.62;6.07;5.30;;;22.20;29.40;;;;;;2252587;61;20425;-62
2023/11/08 09:24:16;0.00;0.00;0.62;0.00;0.00;0.62;6.07;4.87;;;22.10;29.30;;;;;;2252644;61;20698;-62
2023/11/08 09:27:01;0.00;0.00;0.62;0.00;0.00;0.62;6.10;5.10;;;22.10;29.30;;;;;;2252432;61;20367;-62
2023/11/08 09:29:45;0.00;0.00;0.62;0.00;0.00;0.62;6.60;5.60;;;22.10;29.40;;;;;;2252183;61;20410;-62
2023/11/08 09:32:30;0.00;0.00;0.62;0.00;0.00;0.62;8.23;5.57;;;22.10;29.40;;;;;;2252377;61;20446;-62
2023/11/08 09:35:15;0.00;0.00;0.62;0.00;0.00;0.62;7.20;5.83;;;22.10;29.40;;;;;;2252283;61;20386;-62
2023/11/08 09:38:00;0.00;0.00;0.62;0.00;0.00;0.62;6.47;5.70;;;22.10;29.40;;;;;;2252211;61;20478;-64
2023/11/08 09:40:45;0.00;0.00;0.62;0.00;0.00;0.62;6.23;5.63;;;22.10;29.40;;;;;;2252575;61;20378;-63
2023/11/08 09:43:30;0.00;0.00;0.62;0.00;0.00;0.62;5.70;4.90;;;22.10;29.40;;;;;;2252313;61;20363;-64
2023/11/08 09:46:16;0.00;0.00;0.62;0.00;0.00;0.62;5.80;5.10;;;22.20;29.50;;;;;;2252435;61;20568;-64
2023/11/08 09:49:01;0.00;0.00;0.62;0.00;0.00;0.62;6.70;5.00;;;22.20;29.50;;;;;;2251795;61;20379;-64
2023/11/08 09:51:47;0.00;0.00;0.62;0.00;0.00;0.62;5.60;4.87;;;22.20;29.50;;;;;;2252191;61;20670;-64
2023/11/08 09:54:31;0.00;0.00;0.62;0.00;0.00;0.62;5.30;4.80;;;22.20;29.40;;;;;;2252416;61;20398;-63
2023/11/08 09:57:19;0.00;0.00;0.62;0.00;0.00;0.62;5.40;4.63;;;22.20;29.40;;;;;;2252327;61;20362;-64
2023/11/08 10:00:06;0.00;0.00;0.62;0.00;0.00;0.62;5.30;4.47;;;22.20;29.50;;;;;;2252134;61;20366;-61
2023/11/08 10:02:58;0.00;0.00;0.62;0.00;0.00;0.62;5.77;5.03;;;22.20;29.40;;;;;;2252067;61;20363;-64
2023/11/08 10:05:46;0.00;0.00;0.62;0.00;0.00;0.62;5.47;4.63;;;22.20;29.40;;;;;;2252370;61;20386;-64
2023/11/08 10:08:33;0.00;0.00;0.62;0.00;0.00;0.62;6.30;5.00;;;22.20;29.40;;;;;;2252070;61;20363;-62
2023/11/08 10:11:20;0.00;0.00;0.62;0.00;0.00;0.62;5.13;4.63;;;22.20;29.50;;;;;;2252476;61;20397;-62
2023/11/08 10:14:07;0.00;0.00;0.62;0.00;0.00;0.62;5.10;4.60;;;22.20;29.50;;;;;;2252141;61;20395;-61
2023/11/08 10:16:52;0.00;0.00;0.62;0.00;0.00;0.62;6.17;5.13;;;22.20;29.50;;;;;;2252535;61;20394;-62
2023/11/08 10:19:41;0.00;0.00;0.62;0.00;0.00;0.62;5.60;4.70;;;22.20;29.50;;;;;;2254313;61;20451;-61
2023/11/08 10:22:27;0.00;0.00;0.62;0.00;0.00;0.62;5.80;4.47;;;22.20;29.50;;;;;;2252327;61;20773;-62
2023/11/08 10:25:13;0.00;0.00;0.62;0.00;0.00;0.62;5.20;4.70;;;22.20;29.50;;;;;;2252277;61;20374;-64
2023/11/08 10:28:03;0.00;0.00;0.62;0.00;0.00;0.62;5.63;4.40;;;22.20;29.50;;;;;;2251960;61;20462;-63
2023/11/08 10:30:47;0.00;0.00;0.62;0.00;0.00;0.62;5.67;4.60;;;22.20;29.50;;;;;;2252179;61;20377;-64
2023/11/08 10:33:32;0.00;0.00;0.62;0.00;0.00;0.62;5.37;4.80;;;22.20;29.50;;;;;;2252071;61;20387;-64
2023/11/08 10:36:23;0.00;0.00;0.62;0.00;0.00;0.62;5.03;4.07;;;22.20;29.50;;;;;;2252188;61;20378;-63
2023/11/08 10:39:19;0.00;0.00;0.62;0.00;0.00;0.62;4.47;3.70;;;22.20;29.50;;;;;;2251993;61;20409;-62
2023/11/08 10:42:05;0.00;0.00;0.62;0.00;0.00;0.62;5.20;4.30;;;22.20;29.50;;;;;;2252373;61;20829;-63
2023/11/08 10:44:52;0.00;0.00;0.62;0.00;0.00;0.62;4.40;3.80;;;22.30;29.60;;;;;;2252154;61;20387;-63
2023/11/08 10:47:37;0.00;0.00;0.62;0.00;0.00;0.62;4.23;3.83;;;22.30;29.50;;;;;;2252072;61;20397;-63
2023/11/08 10:50:22;0.00;0.00;0.62;0.00;0.00;0.62;5.10;4.57;;;22.30;29.60;;;;;;2251986;61;20374;-63
2023/11/08 10:53:07;0.00;0.00;0.62;0.00;0.00;0.62;4.97;4.20;;;22.30;29.60;;;;;;2252220;61;20434;-63